Latest Weather Observations for Maningrida Airport

IDD60801

Issued at 3:05 pm CST Thursday 27 November 2014 (issued every 30 minutes, with the page automatically refreshed every 10 minutes)

About weather observations | Map of weather stations | Latest weather observations for NT | Other Formats
Station Details ID: 014405 Name: MANINGRIDA AIRPORT Lat: -12.06 Lon: 134.23 Height: 28.1 m
Data from the previous 72 hours. | See also: Recent months at Maningrida Airport
Date/Time
CST
Temp
°C
App
Temp
°C
Dew
Point
Rel
Hum
%
Delta-T
°C
Wind Press
QNH
hPa
Press
MSL
hPa
Rain
since 9 am
mm
Dir
 
Spd
km/h
Gust
km/h
Spd
kts
Gust
kts
27/03:00pm 31.8 33.0 22.5 58 6.4 NE 20 30 11 16 1006.6 1006.4 0.0
27/02:30pm 32.4 34.2 23.3 58 6.3 NE 19 30 10 16 1007.1 1006.9 0.0
27/02:00pm 32.8 33.3 22.6 55 7.0 NNE 24 37 13 20 1007.4 1007.2 0.0
27/01:30pm 32.5 33.7 23.2 58 6.4 NE 22 32 12 17 1007.9 1007.7 0.0
27/01:00pm 33.2 34.6 22.9 54 7.1 NE 20 32 11 17 1008.1 1007.9 0.0
27/12:30pm 33.7 35.1 22.8 53 7.5 NE 20 30 11 16 1008.4 1008.2 0.0
27/12:00pm 32.5 33.4 22.0 54 7.2 NE 20 30 11 16 1008.9 1008.7 0.0
27/11:30am 33.7 35.1 22.8 53 7.5 NE 20 30 11 16 1009.1 1008.9 0.0
27/11:00am 32.9 33.7 21.7 51 7.6 E 20 35 11 19 1009.5 1009.3 0.0
27/10:30am 32.5 34.0 22.0 54 7.2 NE 17 26 9 14 1009.6 1009.4 0.0
27/10:00am 31.5 32.8 21.7 56 6.6 NE 17 24 9 13 1009.8 1009.6 0.0
27/09:30am 31.3 33.3 21.5 56 6.6 ENE 13 17 7 9 1009.8 1009.6 0.0
27/09:00am 31.5 33.7 21.9 56 6.5 ESE 13 19 7 10 1009.7 1009.5 0.0
27/08:30am 30.2 32.7 21.8 60 5.7 SE 11 17 6 9 1009.5 1009.3 0.0
27/08:00am 29.6 32.8 23.1 68 4.5 SE 11 13 6 7 1009.3 1009.1 0.0
27/07:30am 28.5 31.4 23.2 73 3.6 SSE 13 17 7 9 1009.0 1008.8 0.0
27/07:00am 26.4 29.8 24.1 87 1.6 SSE 13 15 7 8 1008.8 1008.6 0.0
27/06:30am 25.5 29.6 24.5 94 0.7 SSE 11 17 6 9 1008.5 1008.3 0.0
27/06:00am 25.1 29.2 24.6 97 0.3 SSE 11 13 6 7 1008.3 1008.1 0.0
27/05:30am 25.1 29.7 24.8 98 0.2 SSE 9 15 5 8 1007.9 1007.7 0.0
27/05:00am 24.9 29.5 24.7 99 0.1 S 9 13 5 7 1007.5 1007.3 0.0
27/04:30am 24.7 30.1 24.5 99 0.1 S 4 7 2 4 1007.2 1007.0 0.0
27/04:00am 24.9 31.2 24.7 99 0.1 CALM 0 7 0 4 1007.0 1006.8 0.0
27/03:30am 24.9 29.8 24.7 99 0.1 SW 7 9 4 5 1007.0 1006.8 0.0
27/03:00am 25.0 30.2 24.8 99 0.1 WSW 6 9 3 5 1007.1 1006.9 0.0
27/02:30am 25.0 30.1 25.0 100 0.0 SW 7 13 4 7 1007.2 1007.0 0.0
27/02:00am 25.2 29.8 24.7 97 0.3 SSW 9 13 5 7 1007.3 1007.1 0.0
27/01:30am 25.6 30.2 24.2 92 1.0 S 7 9 4 5 1007.4 1007.2 0.0
27/01:00am 26.0 30.7 23.9 88 1.4 SSE 6 7 3 4 1007.6 1007.4 0.0
27/12:30am 26.3 30.9 23.8 86 1.7 S 6 7 3 4 1008.1 1007.9 0.0
27/12:00am 26.3 30.5 23.4 84 2.0 S 7 11 4 6 1008.4 1008.2 0.0
 
Date/Time
CST
Temp
°C
App
Temp
°C
Dew
Point
Rel
Hum
%
Delta-T
°C
Wind Press
QNH
hPa
Press
MSL
hPa
Rain
since 9 am
mm
Dir
 
Spd
km/h
Gust
km/h
Spd
kts
Gust
kts
26/11:30pm 26.8 30.6 22.8 79 2.7 S 7 11 4 6 1008.4 1008.2 0.0
26/11:00pm 27.1 31.0 22.9 78 2.9 E 7 9 4 5 1008.4 1008.2 0.0
26/10:30pm 27.1 31.0 22.9 78 2.9 ESE 7 9 4 5 1008.3 1008.1 0.0
26/10:00pm 26.9 30.8 22.9 79 2.7 ESE 7 9 4 5 1008.3 1008.1 0.0
26/09:30pm 26.7 30.7 22.8 79 2.6 E 6 7 3 4 1008.0 1007.8 0.0
26/09:00pm 26.7 32.0 23.0 80 2.5 CALM 0 0 0 0 1007.8 1007.6 0.0
26/08:30pm 26.3 31.6 23.0 82 2.2 CALM 0 6 0 3 1007.5 1007.3 0.0
26/08:00pm 26.2 30.2 23.1 83 2.1 SSE 7 11 4 6 1007.2 1007.0 0.0
26/07:30pm 26.1 29.3 23.0 83 2.1 SSE 11 17 6 9 1007.1 1006.9 0.0
26/07:00pm 27.2 27.6 22.4 75 3.2 SE 24 33 13 18 1007.2 1007.0 0.0
26/06:30pm 29.6 33.2 23.1 68 4.5 ENE 9 13 5 7 1006.7 1006.5 0.0
26/06:00pm 30.6 33.6 22.7 62 5.4 NE 11 19 6 10 1006.2 1006.0 0.0
26/05:30pm 31.0 32.9 22.0 58 6.1 NE 15 26 8 14 1005.8 1005.6 0.0
26/05:00pm 30.7 33.1 22.3 61 5.7 N 13 19 7 10 1005.7 1005.5 0.0
26/04:30pm 30.9 33.1 21.9 58 6.1 NE 13 20 7 11 1005.6 1005.4 0.0
26/04:00pm 31.1 32.2 21.9 58 6.2 NE 19 24 10 13 1005.6 1005.4 0.0
26/03:30pm 31.4 31.8 20.7 53 7.2 NE 19 28 10 15 1006.0 1005.8 0.0
26/03:00pm 31.4 31.5 20.0 50 7.6 NE 19 30 10 16 1006.1 1005.9 0.0
26/02:30pm 32.6 32.7 21.8 53 7.3 NNE 24 39 13 21 1006.1 1005.9 0.0
26/02:00pm 32.7 33.9 22.2 54 7.2 NE 19 30 10 16 1006.5 1006.3 0.0
26/01:30pm 32.7 32.5 21.2 50 7.8 ENE 24 35 13 19 1006.8 1006.6 0.0
26/01:00pm 32.8 32.3 20.7 49 8.1 NE 24 37 13 20 1007.2 1007.0 0.0
26/12:30pm 32.4 33.3 21.9 54 7.1 ENE 20 30 11 16 1007.5 1007.3 0.0
26/12:00pm 33.7 34.4 21.5 49 8.3 ENE 20 32 11 17 1007.8 1007.6 0.0
26/11:30am 33.2 33.4 21.4 50 8.0 ENE 22 32 12 17 1008.2 1008.0 0.0
26/11:00am 33.7 34.9 21.5 49 8.3 E 17 26 9 14 1008.4 1008.2 0.0
26/10:30am 32.2 33.4 21.4 53 7.3 E 17 28 9 15 1008.8 1008.6 0.0
26/10:00am 32.8 33.4 20.3 47 8.3 E 17 32 9 17 1009.0 1008.8 0.0
26/09:30am 32.2 33.9 21.7 54 7.1 E 15 24 8 13 1009.0 1008.8 0.0
26/09:00am 31.0 33.7 22.9 62 5.6 ESE 13 20 7 11 1009.0 1008.8 0.0
26/08:30am 29.7 32.4 22.9 67 4.7 ESE 13 20 7 11 1009.0 1008.8 0.0
26/08:00am 29.7 32.4 23.4 69 4.3 SE 15 20 8 11 1008.6 1008.4 0.0
26/07:30am 28.6 32.0 23.3 73 3.6 SSE 11 15 6 8 1008.2 1008.0 0.0
26/07:00am 27.2 31.4 23.4 80 2.6 SSE 7 11 4 6 1007.8 1007.6 0.0
26/06:30am 25.8 29.6 23.5 87 1.6 SSE 9 11 5 6 1007.5 1007.3 0.0
26/06:00am 25.6 29.7 23.3 87 1.6 S 7 9 4 5 1007.1 1006.9 0.0
26/05:30am 25.7 29.9 23.4 87 1.6 S 7 9 4 5 1006.7 1006.5 0.0
26/05:00am 25.9 30.1 23.4 86 1.7 SSW 7 9 4 5 1006.5 1006.3 0.0
26/04:30am 26.1 30.5 23.4 85 1.8 S 6 9 3 5 1006.5 1006.3 0.0
26/04:00am 26.0 30.1 23.3 85 1.8 S 7 9 4 5 1006.4 1006.2 0.0
26/03:30am 25.9 30.0 23.2 85 1.8 SSW 7 9 4 5 1006.1 1005.9 0.0
26/03:00am 26.3 30.5 23.4 84 2.0 S 7 9 4 5 1006.2 1006.0 0.0
26/02:30am 26.5 30.9 23.4 83 2.1 S 6 7 3 4 1006.4 1006.2 0.0
26/02:00am 26.7 30.9 23.4 82 2.3 S 7 11 4 6 1006.7 1006.5 0.0
26/01:30am 26.7 30.9 23.4 82 2.3 S 7 11 4 6 1006.9 1006.7 0.0
26/01:00am 27.1 31.2 23.3 80 2.6 S 7 11 4 6 1007.3 1007.1 0.0
26/12:30am 27.1 31.4 23.3 80 2.6 SSW 6 9 3 5 1007.7 1007.5 0.0
26/12:00am 27.0 31.3 23.3 80 2.5 S 6 9 3 5 1007.9 1007.7 0.0
 
Date/Time
CST
Temp
°C
App
Temp
°C
Dew
Point
Rel
Hum
%
Delta-T
°C
Wind Press
QNH
hPa
Press
MSL
hPa
Rain
since 9 am
mm
Dir
 
Spd
km/h
Gust
km/h
Spd
kts
Gust
kts
25/11:30pm 27.5 31.8 23.3 78 2.9 E 6 7 3 4 1008.1 1007.9 0.0
25/11:00pm 28.1 33.5 23.2 74 3.4 CALM 0 0 0 0 1008.5 1008.3 0.0
25/10:30pm 28.3 33.7 23.2 74 3.5 CALM 0 6 0 3 1008.4 1008.2 0.0
25/10:00pm 28.4 32.7 23.3 74 3.5 NE 6 7 3 4 1008.4 1008.2 0.0
25/09:30pm 28.6 32.0 23.3 73 3.6 NNE 11 15 6 8 1008.0 1007.8 0.0
25/09:00pm 28.7 31.7 23.4 73 3.6 NNE 13 19 7 10 1008.1 1007.9 0.0
25/08:30pm 28.7 32.3 23.1 71 3.8 NNE 9 13 5 7 1008.0 1007.8 0.0
25/08:00pm 28.9 31.5 23.3 72 3.8 NNE 15 19 8 10 1007.8 1007.6 0.0
25/07:30pm 29.0 31.7 23.4 72 3.9 N 15 24 8 13 1007.3 1007.1 0.0
25/07:00pm 29.0 31.0 23.0 70 4.1 NNE 17 22 9 12 1006.6 1006.4 0.0
25/06:30pm 29.2 30.9 23.4 71 4.0 N 20 26 11 14 1006.3 1006.1 0.0
25/06:00pm 29.4 31.1 23.1 69 4.3 N 19 24 10 13 1006.4 1006.2 0.0
25/05:30pm 29.5 31.2 23.0 68 4.5 N 19 24 10 13 1006.4 1006.2 0.0
25/05:00pm 29.8 31.0 22.5 65 5.0 NNE 20 32 11 17 1005.9 1005.7 0.0
25/04:30pm 31.3 31.7 21.8 57 6.4 NNE 22 32 12 17 1005.5 1005.3 0.0
25/04:00pm 32.3 32.4 21.2 52 7.5 NNE 22 33 12 18 1005.3 1005.1 0.0
25/03:30pm 32.2 31.9 21.1 52 7.5 NNE 24 35 13 19 1005.3 1005.1 0.0
25/03:00pm 32.8 31.6 19.3 45 8.9 NE 24 33 13 18 1005.7 1005.5 0.0
25/02:55pm 33.4 32.7 19.5 44 9.2 NNE 22 32 12 17 1005.8 1005.6 0.0
25/02:36pm 33.5 33.7 20.6 46 8.6 NNE 20 30 11 16 1006.0 1005.8 0.0
25/02:30pm 32.5 32.5 19.7 46 8.5 NNE 19 30 10 16 1006.2 1006.0 0.0
25/02:00pm 32.8 33.0 21.3 50 7.8 NE 22 32 12 17 1006.8 1006.6 0.0
25/01:30pm 33.4 33.7 21.5 49 8.1 NE 22 32 12 17 1007.2 1007.0 0.0
25/01:00pm 33.4 35.2 22.5 52 7.5 N 17 24 9 13 1007.8 1007.6 0.0
25/12:30pm 32.6 34.2 23.3 58 6.4 NNE 20 28 11 15 1008.1 1007.9 0.0
25/12:00pm 33.0 35.6 23.3 56 6.7 NNE 15 24 8 13 1008.5 1008.3 0.0
25/11:30am 31.8 33.0 22.2 56 6.5 NNE 19 26 10 14 1008.6 1008.4 0.0
25/11:00am 32.2 33.9 23.4 59 6.1 N 20 26 11 14 1008.9 1008.7 0.0
25/10:30am 31.7 33.9 23.2 60 5.9 N 17 26 9 14 1009.1 1008.9 0.0
25/10:00am 31.0 32.9 23.4 64 5.2 N 19 26 10 14 1009.2 1009.0 0.0
25/09:30am 29.8 32.9 23.5 69 4.3 N 13 15 7 8 1009.4 1009.2 0.0
25/09:00am 30.3 34.0 23.2 65 4.9 N 9 17 5 9 1009.3 1009.1 0.0
25/08:30am 30.2 33.7 22.9 65 5.0 NE 9 13 5 7 1009.4 1009.2 0.0
25/08:00am 29.3 33.5 23.5 71 4.0 SSE 7 9 4 5 1009.2 1009.0 0.0
25/07:30am 27.6 31.9 23.6 79 2.8 SSE 7 9 4 5 1009.3 1009.1 0.0
25/07:00am 27.1 31.5 23.8 82 2.3 SSE 7 9 4 5 1009.0 1008.8 0.0
25/06:30am 26.2 30.7 23.9 87 1.6 SSE 7 9 4 5 1008.7 1008.5 0.0
25/06:00am 25.9 29.9 23.8 88 1.4 SSE 9 9 5 5 1008.2 1008.0 0.0
25/05:30am 26.1 30.5 23.8 87 1.6 SE 7 9 4 5 1007.8 1007.6 0.0
25/05:00am 26.4 31.1 23.9 86 1.7 ESE 6 7 3 4 1007.5 1007.3 0.0
25/04:30am 26.4 31.1 23.9 86 1.7 SSE 6 6 3 3 1007.6 1007.4 0.0
25/04:00am 26.3 30.7 23.8 86 1.7 SSE 7 9 4 5 1007.7 1007.5 0.0
25/03:30am 26.4 31.1 23.9 86 1.7 SE 6 7 3 4 1007.4 1007.2 0.0
25/03:00am 26.3 30.9 23.8 86 1.7 SE 6 7 3 4 1007.7 1007.5 0.0
25/02:30am 26.5 31.7 23.6 84 2.0 SSE 2 6 1 3 1007.7 1007.5 0.0
25/02:00am 26.7 31.3 23.8 84 2.0 SSE 6 7 3 4 1008.3 1008.1 0.0
25/01:30am 26.7 32.4 23.8 84 2.0 CALM 0 0 0 0 1008.4 1008.2 0.0
25/01:00am 26.9 31.5 23.8 83 2.1 SSW 6 7 3 4 1008.9 1008.7 0.0
25/12:51am 26.9 31.5 23.8 83 2.1 SSW 6 7 3 4 1009.1 1008.9 0.0
25/12:36am 27.1 32.5 23.8 82 2.3 SSW 2 7 1 4 1009.2 1009.0 0.0
25/12:30am 27.1 32.8 23.8 82 2.3 CALM 0 0 0 0 1009.1 1008.9 0.0
25/12:00am 27.2 31.7 23.7 81 2.4 SSW 6 9 3 5 1009.4 1009.2 0.0
 
Date/Time
CST
Temp
°C
App
Temp
°C
Dew
Point
Rel
Hum
%
Delta-T
°C
Wind Press
QNH
hPa
Press
MSL
hPa
Rain
since 9 am
mm
Dir
 
Spd
km/h
Gust
km/h
Spd
kts
Gust
kts
24/11:30pm 27.6 31.8 23.2 77 3.0 WSW 6 7 3 4 1009.7 1009.5 0.0
24/11:00pm 28.7 33.2 23.6 74 3.5 N 6 9 3 5 1009.8 1009.6 0.0
24/10:30pm 28.7 32.9 23.4 73 3.6 N 7 9 4 5 1009.8 1009.6 0.0
24/10:00pm 28.8 32.5 23.2 71 3.8 N 9 17 5 9 1009.7 1009.5 0.0
24/09:30pm 28.8 31.7 23.2 71 3.8 N 13 17 7 9 1009.2 1009.0 0.0
24/09:00pm 28.8 33.1 23.7 74 3.5 NNE 7 13 4 7 1009.3 1009.1 0.0
24/08:30pm 28.7 32.2 23.6 74 3.5 NNE 11 15 6 8 1008.9 1008.7 0.0
24/08:00pm 28.8 31.5 23.5 73 3.6 N 15 20 8 11 1008.3 1008.1 0.0
24/07:30pm 28.9 31.1 23.3 72 3.8 NNE 17 20 9 11 1007.7 1007.5 0.0
24/07:00pm 29.0 31.2 23.2 71 4.0 NNE 17 24 9 13 1007.3 1007.1 0.0
24/06:30pm 29.2 30.7 22.7 68 4.4 N 19 24 10 13 1006.8 1006.6 0.0
24/06:00pm 29.6 31.0 22.6 66 4.8 N 19 26 10 14 1006.6 1006.4 0.0
24/05:30pm 30.1 31.0 22.0 62 5.5 N 20 28 11 15 1006.3 1006.1 0.0
24/05:00pm 30.3 31.2 21.9 60 5.7 NNE 20 30 11 16 1006.2 1006.0 0.0
24/04:30pm 31.3 32.0 22.3 58 6.1 N 22 30 12 16 1006.1 1005.9 0.0
24/04:00pm 30.9 31.7 22.5 61 5.7 N 22 30 12 16 1006.4 1006.2 0.0
24/03:30pm 32.0 32.8 22.4 57 6.6 N 22 30 12 16 1006.5 1006.3 0.0

Other Formats:

Comma delimited format used in spreadsheet applications
http://www.bom.gov.au/fwo/IDD60801/IDD60801.95142.axf

JavaScript Object Notation format (JSON) in row-major order
http://www.bom.gov.au/fwo/IDD60801/IDD60801.95142.json